Time;durP1;ratioP1;P1;durP2;ratioP2;P2;SDS_P1;SDS_P2;PMS_P1;PMS_P2;Temp;Humidity;BMP_temperature;BMP_pressure;BME280_temperature;BME280_humidity;BME280_pressure;Samples;Min_cycle;Max_cycle;Signal;HPM_P1;HPM_P2
2023/09/03 00:01:42;;;;;;;6.30;4.40;;;23.30;99.90;;;;;;4990087;28;20728;-73
2023/09/03 00:04:08;;;;;;;7.23;5.00;;;23.20;99.90;;;;;;4985439;28;20557;-73
2023/09/03 00:06:33;;;;;;;5.70;5.07;;;23.20;99.90;;;;;;4987822;28;20428;-73
2023/09/03 00:08:59;;;;;;;6.70;4.47;;;23.20;99.90;;;;;;4985690;28;20604;-73
2023/09/03 00:11:24;;;;;;;6.47;5.27;;;23.20;99.90;;;;;;4983029;28;20190;-73
2023/09/03 00:13:50;;;;;;;6.67;5.20;;;23.10;99.90;;;;;;4986041;28;20182;-73
2023/09/03 00:16:15;;;;;;;6.60;5.10;;;23.10;99.90;;;;;;4985542;28;20673;-73
2023/09/03 00:18:41;;;;;;;6.57;5.17;;;23.10;99.90;;;;;;4984563;28;20690;-73
2023/09/03 00:21:07;;;;;;;7.50;5.10;;;23.10;99.90;;;;;;4987562;28;20668;-73
2023/09/03 00:23:33;;;;;;;5.30;4.37;;;23.00;99.90;;;;;;4982134;28;20857;-73
2023/09/03 00:26:00;;;;;;;9.10;5.13;;;23.00;99.90;;;;;;4983898;28;20718;-73
2023/09/03 00:28:26;;;;;;;8.40;4.37;;;23.00;99.90;;;;;;4984133;28;20877;-73
2023/09/03 00:31:09;;;;;;;6.57;4.80;;;22.90;99.90;;;;;;4982792;28;20452;-73
2023/09/03 00:33:35;;;;;;;5.83;4.07;;;22.90;99.90;;;;;;4982951;28;20829;-73
2023/09/03 00:36:03;;;;;;;5.47;4.50;;;22.90;99.90;;;;;;4982260;28;20421;-73
2023/09/03 00:38:29;;;;;;;4.43;3.70;;;22.80;99.90;;;;;;4979929;28;20445;-73
2023/09/03 00:40:55;;;;;;;5.53;4.37;;;22.80;99.90;;;;;;4979015;28;20915;-73
2023/09/03 00:43:21;;;;;;;6.10;4.20;;;22.80;99.90;;;;;;4978766;28;20253;-73
2023/09/03 00:45:48;;;;;;;5.77;4.37;;;22.70;99.90;;;;;;4982581;28;20277;-73
2023/09/03 00:48:18;;;;;;;6.53;4.63;;;22.70;99.90;;;;;;4981168;28;20944;-73
2023/09/03 00:50:45;;;;;;;5.40;4.60;;;22.60;99.90;;;;;;4979398;28;20437;-73
2023/09/03 00:53:11;;;;;;;5.80;4.93;;;22.60;99.90;;;;;;4985235;28;20409;-73
2023/09/03 00:55:39;;;;;;;6.13;4.10;;;22.60;99.90;;;;;;4986911;28;20428;-73
2023/09/03 00:58:09;;;;;;;6.50;4.00;;;22.60;99.90;;;;;;4980705;28;20590;-73
2023/09/03 01:00:35;;;;;;;4.90;4.13;;;22.50;99.90;;;;;;4983939;28;20419;-74
2023/09/03 01:03:02;;;;;;;8.03;4.13;;;22.50;99.90;;;;;;4981511;28;20508;-73
2023/09/03 01:05:29;;;;;;;4.27;3.83;;;22.50;99.90;;;;;;4983595;28;20409;-73
2023/09/03 01:07:57;;;;;;;4.77;4.10;;;22.40;99.90;;;;;;4980320;28;20461;-73
2023/09/03 01:10:32;;;;;;;4.40;3.70;;;22.40;99.90;;;;;;4982151;28;20233;-73
2023/09/03 01:13:23;;;;;;;5.20;4.17;;;22.40;99.90;;;;;;4985145;28;20452;-73
2023/09/03 01:15:51;;;;;;;5.70;4.20;;;22.40;99.90;;;;;;4979067;28;20478;-73
2023/09/03 01:18:23;;;;;;;5.00;4.50;;;22.40;99.90;;;;;;4978577;28;20457;-73
2023/09/03 01:20:58;;;;;;;4.57;3.83;;;22.30;99.90;;;;;;4983484;28;20414;-73
2023/09/03 01:23:50;;;;;;;4.00;3.60;;;22.30;99.90;;;;;;4980289;28;20428;-73
2023/09/03 01:26:18;;;;;;;5.73;3.90;;;22.30;99.90;;;;;;4982964;28;20437;-73
2023/09/03 01:28:46;;;;;;;4.73;3.60;;;22.30;99.90;;;;;;4986673;28;20470;-74
2023/09/03 01:31:16;;;;;;;5.77;3.93;;;22.30;99.90;;;;;;4983099;28;20499;-73
2023/09/03 01:33:43;;;;;;;5.90;4.23;;;22.20;99.90;;;;;;4981729;28;20421;-73
2023/09/03 01:36:09;;;;;;;7.43;4.20;;;22.20;99.90;;;;;;4984720;28;20436;-73
2023/09/03 01:38:39;;;;;;;6.00;3.90;;;22.20;99.90;;;;;;4983275;28;20622;-73
2023/09/03 01:41:07;;;;;;;5.43;4.07;;;22.20;99.90;;;;;;4982415;28;20535;-73
2023/09/03 01:43:36;;;;;;;4.83;4.33;;;22.20;99.90;;;;;;4983004;28;20432;-73
2023/09/03 01:46:13;;;;;;;5.73;4.37;;;22.10;99.90;;;;;;4981461;28;20433;-73
2023/09/03 01:49:17;;;;;;;6.43;4.23;;;22.10;99.90;;;;;;4981421;28;20998;-73
2023/09/03 01:51:54;;;;;;;5.17;4.13;;;22.00;99.90;;;;;;4992968;28;20492;-73
2023/09/03 01:54:25;;;;;;;5.00;4.20;;;22.00;99.90;;;;;;4980309;28;20468;-73
2023/09/03 01:57:25;;;;;;;5.00;4.00;;;22.00;99.90;;;;;;4980321;28;20523;-73
2023/09/03 02:00:00;;;;;;;5.50;4.73;;;21.90;99.90;;;;;;4981025;28;20418;-73
2023/09/03 02:02:27;;;;;;;4.30;3.70;;;21.90;99.90;;;;;;4979394;28;20507;-73
2023/09/03 02:04:54;;;;;;;4.10;3.63;;;21.90;99.90;;;;;;4982987;28;20451;-73
2023/09/03 02:07:20;;;;;;;4.80;3.93;;;21.90;99.90;;;;;;4984671;28;20479;-74
2023/09/03 02:09:46;;;;;;;14.23;5.07;;;21.90;99.90;;;;;;4981798;28;20468;-74
2023/09/03 02:12:11;;;;;;;8.60;4.93;;;21.90;99.90;;;;;;4982149;28;20180;-74
2023/09/03 02:14:37;;;;;;;6.23;4.07;;;21.90;99.90;;;;;;4979772;28;20190;-73
2023/09/03 02:17:03;;;;;;;4.90;4.00;;;21.80;99.90;;;;;;4979405;28;20220;-74
2023/09/03 02:19:29;;;;;;;6.40;4.30;;;21.80;99.90;;;;;;4983304;28;20210;-73
2023/09/03 02:21:54;;;;;;;5.77;4.40;;;21.80;99.90;;;;;;4975175;28;20428;-73
2023/09/03 02:24:20;;;;;;;4.33;3.90;;;21.80;99.90;;;;;;4996119;28;20185;-73
2023/09/03 02:26:46;;;;;;;5.87;4.20;;;21.80;99.90;;;;;;4982166;28;20191;-74
2023/09/03 02:29:13;;;;;;;5.10;4.10;;;21.70;99.90;;;;;;4984088;28;20221;-73
2023/09/03 02:31:39;;;;;;;4.07;3.57;;;21.70;99.90;;;;;;4979566;28;20433;-73
2023/09/03 02:34:06;;;;;;;6.20;4.00;;;21.70;99.90;;;;;;4982254;28;21119;-73
2023/09/03 02:36:33;;;;;;;5.00;4.40;;;21.70;99.90;;;;;;4982979;28;20448;-73
2023/09/03 02:39:04;;;;;;;4.67;4.07;;;21.70;99.90;;;;;;4983392;28;20479;-73
2023/09/03 02:41:30;;;;;;;4.87;4.30;;;21.70;99.90;;;;;;4985404;28;20496;-73
2023/09/03 02:43:57;;;;;;;4.80;3.50;;;21.70;99.90;;;;;;4981359;28;20910;-73
2023/09/03 02:46:23;;;;;;;11.53;5.90;;;21.70;99.90;;;;;;4979981;28;20444;-73
2023/09/03 02:48:49;;;;;;;5.70;3.73;;;21.70;99.90;;;;;;4979286;28;20480;-73
2023/09/03 02:51:15;;;;;;;4.23;3.83;;;21.70;99.90;;;;;;4977645;28;20184;-73
2023/09/03 02:53:42;;;;;;;6.50;4.20;;;21.70;99.90;;;;;;4980947;28;20420;-73
2023/09/03 02:56:08;;;;;;;4.97;4.13;;;21.70;99.90;;;;;;4981275;28;20217;-73
2023/09/03 02:58:34;;;;;;;5.13;4.00;;;21.70;99.90;;;;;;4981199;28;20884;-73
2023/09/03 03:01:21;;;;;;;5.20;3.90;;;21.70;99.90;;;;;;4981841;28;20188;-73
2023/09/03 03:03:47;;;;;;;4.93;3.90;;;21.60;99.90;;;;;;4980834;28;20606;-73
2023/09/03 03:06:13;;;;;;;4.50;4.10;;;21.60;99.90;;;;;;4981572;28;20536;-73
2023/09/03 03:08:39;;;;;;;6.43;4.33;;;21.50;99.90;;;;;;4982657;28;20441;-73
2023/09/03 03:11:09;;;;;;;6.10;4.30;;;21.50;99.90;;;;;;4984782;28;20420;-73
2023/09/03 03:13:35;;;;;;;4.70;4.17;;;21.50;99.90;;;;;;4977684;28;20637;-73
2023/09/03 03:16:06;;;;;;;8.53;3.80;;;21.50;99.90;;;;;;4980967;28;20459;-73
2023/09/03 03:18:33;;;;;;;5.73;4.17;;;21.40;99.90;;;;;;4980910;28;20441;-73
2023/09/03 03:21:08;;;;;;;6.10;4.03;;;21.40;99.90;;;;;;4980906;28;20479;-73
2023/09/03 03:23:40;;;;;;;6.63;3.90;;;21.40;99.90;;;;;;4983046;28;20412;-73
2023/09/03 03:26:08;;;;;;;4.37;3.97;;;21.40;99.90;;;;;;4983386;28;20468;-73
2023/09/03 03:28:35;;;;;;;5.90;4.77;;;21.30;99.90;;;;;;4976257;28;20486;-73
2023/09/03 03:31:18;;;;;;;5.67;3.80;;;21.30;99.90;;;;;;4983426;28;20443;-73
2023/09/03 03:33:46;;;;;;;6.43;4.00;;;21.30;99.90;;;;;;4979004;28;20421;-73
2023/09/03 03:36:16;;;;;;;10.83;3.87;;;21.30;99.90;;;;;;4979491;28;20425;-73
2023/09/03 03:38:42;;;;;;;4.73;3.73;;;21.30;99.90;;;;;;4972048;28;20561;-73
2023/09/03 03:41:09;;;;;;;8.27;4.10;;;21.30;99.90;;;;;;4976059;28;20533;-73
2023/09/03 03:43:36;;;;;;;6.03;4.30;;;21.30;99.90;;;;;;4980333;28;20178;-73
2023/09/03 03:46:02;;;;;;;4.70;4.10;;;21.30;99.90;;;;;;4983651;28;20927;-73
2023/09/03 03:48:28;;;;;;;5.30;4.10;;;21.20;99.90;;;;;;4979790;28;20455;-73
2023/09/03 03:50:56;;;;;;;5.50;4.10;;;21.20;99.90;;;;;;4980332;28;20309;-73
2023/09/03 03:53:22;;;;;;;5.00;4.20;;;21.20;99.90;;;;;;4984429;28;20182;-73
2023/09/03 03:56:03;;;;;;;7.20;4.47;;;21.20;99.90;;;;;;4981421;28;20443;-73
2023/09/03 03:58:31;;;;;;;3.90;3.50;;;21.20;99.90;;;;;;4981985;28;20239;-73
2023/09/03 04:00:56;;;;;;;4.83;3.97;;;21.20;99.90;;;;;;4985506;28;20421;-73
2023/09/03 04:03:23;;;;;;;6.43;4.80;;;21.20;99.90;;;;;;4980944;28;20862;-73
2023/09/03 04:06:00;;;;;;;6.80;3.83;;;21.20;99.90;;;;;;4983271;28;20398;-73
2023/09/03 04:08:27;;;;;;;6.00;4.70;;;21.10;99.90;;;;;;4980134;28;20479;-73
2023/09/03 04:11:00;;;;;;;6.30;4.20;;;21.10;99.90;;;;;;4981200;28;20524;-73
2023/09/03 04:13:27;;;;;;;5.07;4.27;;;21.10;99.90;;;;;;4986392;28;20455;-73
2023/09/03 04:15:56;;;;;;;10.03;4.07;;;21.10;99.90;;;;;;4982654;28;20419;-73
2023/09/03 04:18:22;;;;;;;4.80;3.97;;;21.10;99.90;;;;;;4982395;28;20437;-73
2023/09/03 04:20:52;;;;;;;6.47;3.90;;;21.10;99.90;;;;;;4984454;28;20516;-73
2023/09/03 04:23:18;;;;;;;6.50;4.43;;;21.10;99.90;;;;;;4985125;28;20790;-73
2023/09/03 04:25:44;;;;;;;4.90;3.87;;;21.10;99.90;;;;;;4979989;28;20436;-73
2023/09/03 04:28:09;;;;;;;4.93;4.13;;;21.10;99.90;;;;;;4984144;28;20972;-73
2023/09/03 04:30:36;;;;;;;5.50;4.00;;;21.10;99.90;;;;;;4986967;28;20221;-73
2023/09/03 04:33:04;;;;;;;5.33;3.80;;;21.10;99.90;;;;;;4978291;28;20194;-73
2023/09/03 04:35:30;;;;;;;6.37;4.50;;;21.10;99.90;;;;;;4981535;28;20569;-73
2023/09/03 04:37:55;;;;;;;4.93;4.20;;;21.10;99.90;;;;;;4978118;28;20437;-73
2023/09/03 04:40:21;;;;;;;5.73;4.77;;;21.10;99.90;;;;;;4979978;28;20442;-73
2023/09/03 04:42:47;;;;;;;5.83;4.60;;;21.10;99.90;;;;;;4982902;28;20186;-73
2023/09/03 04:45:12;;;;;;;5.47;4.60;;;21.00;99.90;;;;;;4982594;28;20191;-74
2023/09/03 04:47:38;;;;;;;7.17;4.77;;;21.10;99.90;;;;;;4978642;28;20267;-74
2023/09/03 04:50:04;;;;;;;5.50;4.47;;;21.00;99.90;;;;;;4984611;28;20217;-74
2023/09/03 04:52:30;;;;;;;5.40;4.10;;;21.00;99.90;;;;;;4982806;28;20182;-75
2023/09/03 04:54:55;;;;;;;4.93;3.73;;;21.00;99.90;;;;;;4986442;28;20421;-74
2023/09/03 04:57:21;;;;;;;5.50;3.77;;;21.10;99.90;;;;;;4982406;28;20662;-74
2023/09/03 04:59:47;;;;;;;8.50;4.33;;;21.00;99.90;;;;;;4987999;28;20566;-74
2023/09/03 05:02:13;;;;;;;5.10;4.33;;;21.10;99.90;;;;;;4984766;28;20186;-73
2023/09/03 05:04:38;;;;;;;5.97;4.60;;;21.10;99.90;;;;;;4983055;28;20447;-74
2023/09/03 05:07:05;;;;;;;4.43;4.00;;;21.10;99.90;;;;;;4982639;28;20185;-74
2023/09/03 05:09:31;;;;;;;3.90;3.50;;;21.10;99.90;;;;;;4981470;28;20574;-74
2023/09/03 05:11:56;;;;;;;4.93;4.20;;;21.10;99.90;;;;;;4983514;28;20555;-74
2023/09/03 05:14:22;;;;;;;8.97;3.90;;;21.10;99.90;;;;;;4977150;28;20212;-74
2023/09/03 05:16:48;;;;;;;8.97;4.20;;;21.10;99.90;;;;;;4984281;28;20267;-74
2023/09/03 05:19:14;;;;;;;4.23;3.83;;;21.10;99.90;;;;;;4984272;28;20209;-73
2023/09/03 05:21:43;;;;;;;6.07;4.50;;;21.10;99.90;;;;;;4980232;28;20237;-74
2023/09/03 05:24:10;;;;;;;8.77;4.60;;;21.10;99.90;;;;;;4978935;28;20440;-74
2023/09/03 05:26:36;;;;;;;4.70;4.10;;;21.10;99.90;;;;;;4977853;28;20506;-74
2023/09/03 05:29:01;;;;;;;6.67;4.53;;;21.10;99.90;;;;;;4981027;28;20476;-74
2023/09/03 05:31:30;;;;;;;5.87;4.93;;;21.10;99.90;;;;;;4980609;28;20417;-74
2023/09/03 05:33:56;;;;;;;6.70;4.30;;;21.10;99.90;;;;;;4983227;28;20186;-73
2023/09/03 05:36:22;;;;;;;6.10;4.57;;;21.10;99.90;;;;;;4983559;28;20472;-73
2023/09/03 05:38:47;;;;;;;8.93;4.97;;;21.10;99.90;;;;;;4984158;28;20440;-73
2023/09/03 05:41:13;;;;;;;8.53;4.80;;;21.10;99.90;;;;;;4981661;28;20207;-73
2023/09/03 05:43:38;;;;;;;6.20;4.00;;;21.10;99.90;;;;;;4981810;28;20733;-73
2023/09/03 05:46:04;;;;;;;6.80;4.27;;;21.10;99.90;;;;;;4980697;28;20193;-73
2023/09/03 05:48:30;;;;;;;6.20;4.30;;;21.20;99.90;;;;;;4982906;28;20232;-73
2023/09/03 05:51:03;;;;;;;6.07;4.03;;;21.20;99.90;;;;;;4982650;28;20477;-73
2023/09/03 05:53:30;;;;;;;6.00;4.30;;;21.20;99.90;;;;;;4980245;28;20676;-73
2023/09/03 05:56:06;;;;;;;7.07;4.00;;;21.20;99.90;;;;;;4985228;28;20521;-73
2023/09/03 05:58:32;;;;;;;10.83;5.13;;;21.20;99.90;;;;;;4985408;28;20440;-73
2023/09/03 06:00:58;;;;;;;8.73;4.87;;;21.20;99.90;;;;;;4985697;28;20651;-73
2023/09/03 06:03:24;;;;;;;7.53;4.37;;;21.20;99.90;;;;;;4992259;28;20864;-73
2023/09/03 06:05:50;;;;;;;7.03;4.27;;;21.30;99.90;;;;;;4987928;28;20421;-73
2023/09/03 06:08:15;;;;;;;5.17;4.20;;;21.30;99.90;;;;;;4987336;28;20557;-73
2023/09/03 06:10:41;;;;;;;8.83;4.20;;;21.30;99.90;;;;;;4983807;28;20212;-73
2023/09/03 06:13:07;;;;;;;4.67;4.17;;;21.40;99.90;;;;;;4985921;28;20190;-73
2023/09/03 06:15:32;;;;;;;5.53;4.33;;;21.40;99.90;;;;;;4984422;28;20416;-73
2023/09/03 06:18:01;;;;;;;4.87;3.90;;;21.40;99.90;;;;;;4983381;28;20688;-73
2023/09/03 06:20:27;;;;;;;7.07;4.97;;;21.50;99.90;;;;;;4983069;28;20190;-73
2023/09/03 06:22:52;;;;;;;4.60;3.60;;;21.50;99.90;;;;;;4985294;28;20429;-72
2023/09/03 06:25:18;;;;;;;5.60;4.30;;;21.50;99.90;;;;;;4984953;28;20189;-72
2023/09/03 06:27:44;;;;;;;7.00;4.67;;;21.50;99.90;;;;;;4983365;28;20259;-73
2023/09/03 06:30:10;;;;;;;7.83;4.60;;;21.60;99.90;;;;;;4979660;28;20244;-73
2023/09/03 06:32:36;;;;;;;6.60;4.80;;;21.60;99.90;;;;;;4984326;28;20610;-74
2023/09/03 06:35:05;;;;;;;6.03;4.30;;;21.60;99.90;;;;;;4980093;28;20932;-74
2023/09/03 06:37:31;;;;;;;6.33;4.47;;;21.70;99.90;;;;;;4975971;28;20457;-74
2023/09/03 06:39:56;;;;;;;5.93;4.17;;;21.70;99.90;;;;;;4977257;28;20445;-75
2023/09/03 06:42:22;;;;;;;5.10;4.60;;;21.80;99.90;;;;;;4983511;28;20266;-74
2023/09/03 06:44:47;;;;;;;6.37;4.70;;;21.80;99.90;;;;;;4978809;28;20251;-73
2023/09/03 06:47:13;;;;;;;7.97;4.70;;;21.80;99.90;;;;;;4981600;28;20748;-74
2023/09/03 06:49:39;;;;;;;7.27;5.30;;;21.80;99.90;;;;;;4974170;28;20288;-73
2023/09/03 06:52:04;;;;;;;7.10;5.30;;;21.90;99.90;;;;;;4981871;28;20592;-74
2023/09/03 06:54:30;;;;;;;7.40;5.17;;;21.90;99.90;;;;;;4980198;28;20244;-73
2023/09/03 06:56:56;;;;;;;7.60;5.60;;;21.90;99.90;;;;;;4980579;28;20181;-73
2023/09/03 06:59:23;;;;;;;6.27;5.50;;;21.90;99.90;;;;;;4975189;28;20685;-73
2023/09/03 07:01:50;;;;;;;8.73;5.60;;;21.90;99.90;;;;;;4980658;28;20182;-73
2023/09/03 07:04:15;;;;;;;5.90;5.30;;;21.90;99.90;;;;;;4980678;28;20429;-73
2023/09/03 07:06:41;;;;;;;11.50;5.53;;;21.90;99.90;;;;;;4979441;28;20479;-73
2023/09/03 07:09:06;;;;;;;8.67;5.20;;;21.90;99.90;;;;;;4985323;28;20304;-73
2023/09/03 07:11:32;;;;;;;6.10;5.27;;;22.00;99.90;;;;;;4983124;28;20189;-73
2023/09/03 07:13:58;;;;;;;7.33;5.90;;;22.00;99.90;;;;;;4985542;28;20189;-73
2023/09/03 07:16:23;;;;;;;6.30;5.37;;;22.10;99.90;;;;;;4981997;28;20214;-73
2023/09/03 07:18:49;;;;;;;7.50;5.97;;;22.10;99.90;;;;;;4974116;28;20591;-73
2023/09/03 07:21:15;;;;;;;6.60;5.63;;;22.10;99.90;;;;;;4978341;28;20585;-73
2023/09/03 07:23:40;;;;;;;7.70;6.20;;;22.10;99.90;;;;;;4976128;28;20189;-73
2023/09/03 07:26:11;;;;;;;8.57;6.13;;;22.20;99.90;;;;;;4978177;28;20264;-73
2023/09/03 07:28:38;;;;;;;6.23;5.63;;;22.20;99.90;;;;;;4983486;28;20272;-73
2023/09/03 07:31:04;;;;;;;7.50;5.77;;;22.20;99.90;;;;;;4984430;28;20451;-74
2023/09/03 07:33:32;;;;;;;14.43;7.13;;;22.20;99.90;;;;;;4977919;28;20966;-74
2023/09/03 07:35:58;;;;;;;7.10;5.40;;;22.20;99.90;;;;;;4983666;28;20420;-74
2023/09/03 07:38:25;;;;;;;6.87;6.17;;;22.20;99.90;;;;;;4979563;28;20809;-74
2023/09/03 07:40:51;;;;;;;7.80;5.87;;;22.30;99.90;;;;;;4985222;28;20451;-74
2023/09/03 07:43:17;;;;;;;6.40;5.63;;;22.20;99.90;;;;;;4981691;28;20840;-74
2023/09/03 07:45:42;;;;;;;10.67;6.67;;;22.20;99.90;;;;;;4982762;28;22012;-74
2023/09/03 07:48:08;;;;;;;6.50;5.57;;;22.10;99.90;;;;;;4984319;28;20717;-74
2023/09/03 07:50:36;;;;;;;6.70;5.80;;;22.20;99.90;;;;;;4981268;28;21418;-74
2023/09/03 07:53:03;;;;;;;8.57;5.53;;;22.20;99.90;;;;;;4983942;28;20182;-74
2023/09/03 07:55:29;;;;;;;6.70;5.50;;;22.30;99.90;;;;;;4987930;28;20845;-74
2023/09/03 07:57:54;;;;;;;5.83;5.23;;;22.30;99.90;;;;;;4978332;28;20453;-74
2023/09/03 08:00:20;;;;;;;8.87;5.67;;;22.30;99.90;;;;;;4986893;28;20256;-74
2023/09/03 08:02:46;;;;;;;7.67;5.23;;;22.30;99.90;;;;;;4980874;28;20194;-73
2023/09/03 08:05:11;;;;;;;5.87;4.83;;;22.30;99.90;;;;;;4983622;28;20213;-73
2023/09/03 08:07:37;;;;;;;6.10;4.53;;;22.40;99.90;;;;;;4981293;28;20206;-74
2023/09/03 08:10:03;;;;;;;6.27;4.30;;;22.40;99.90;;;;;;4983374;28;20205;-73
2023/09/03 08:12:29;;;;;;;13.20;5.03;;;22.50;99.90;;;;;;4978675;28;20445;-74
2023/09/03 08:14:55;;;;;;;5.80;4.87;;;22.50;99.90;;;;;;4985474;28;20421;-74
2023/09/03 08:17:21;;;;;;;18.20;14.50;;;22.60;99.90;;;;;;4984280;28;20583;-73
2023/09/03 08:19:48;;;;;;;8.57;5.70;;;22.70;99.90;;;;;;4981117;28;20337;-74
2023/09/03 08:22:13;;;;;;;6.73;4.80;;;22.70;99.90;;;;;;4981263;28;20456;-74
2023/09/03 08:24:39;;;;;;;5.00;4.00;;;22.70;99.90;;;;;;4980192;28;20519;-74
2023/09/03 08:27:04;;;;;;;6.40;4.87;;;22.80;99.90;;;;;;4982743;28;20254;-74
2023/09/03 08:29:30;;;;;;;7.53;6.40;;;22.90;99.90;;;;;;4982923;28;20205;-74
2023/09/03 08:31:56;;;;;;;5.00;4.30;;;22.90;99.90;;;;;;4984886;28;20834;-74
2023/09/03 08:34:21;;;;;;;6.30;4.80;;;23.00;99.90;;;;;;4985592;28;20186;-74
2023/09/03 08:36:47;;;;;;;4.53;4.13;;;23.10;99.90;;;;;;4984304;28;20197;-73
2023/09/03 08:39:13;;;;;;;7.93;5.37;;;23.20;99.90;;;;;;4982987;28;20217;-73
2023/09/03 08:41:41;;;;;;;5.20;4.13;;;23.20;99.90;;;;;;4982446;28;20197;-73
2023/09/03 08:44:16;;;;;;;6.17;5.50;;;23.30;99.90;;;;;;4985752;28;20554;-74
2023/09/03 08:46:44;;;;;;;5.97;4.30;;;23.30;99.90;;;;;;4983641;28;20452;-74
2023/09/03 08:49:12;;;;;;;4.93;4.43;;;23.40;99.90;;;;;;4987304;28;20481;-74
2023/09/03 08:51:38;;;;;;;8.83;5.40;;;23.40;99.90;;;;;;4983338;28;20518;-74
2023/09/03 08:54:05;;;;;;;4.73;3.93;;;23.50;99.90;;;;;;4985291;28;20551;-74
2023/09/03 08:56:33;;;;;;;4.57;3.80;;;23.50;99.90;;;;;;4982227;28;20190;-74
2023/09/03 08:58:59;;;;;;;4.53;4.03;;;23.60;99.90;;;;;;4983293;28;20912;-73
2023/09/03 09:01:29;;;;;;;4.00;3.40;;;23.60;99.90;;;;;;4984787;28;20429;-73
2023/09/03 09:04:02;;;;;;;6.40;5.80;;;23.70;99.90;;;;;;4978871;28;20679;-73
2023/09/03 09:06:29;;;;;;;8.20;7.40;;;23.80;99.90;;;;;;4984262;28;20456;-73
2023/09/03 09:08:57;;;;;;;9.50;7.93;;;23.90;99.90;;;;;;4986589;28;20477;-73
2023/09/03 09:11:26;;;;;;;6.30;5.70;;;23.90;99.90;;;;;;4984522;28;20422;-74
2023/09/03 09:13:57;;;;;;;4.70;3.83;;;24.00;99.90;;;;;;4982099;28;20441;-74
2023/09/03 09:16:23;;;;;;;3.90;3.47;;;24.10;99.90;;;;;;4986224;28;20447;-74
2023/09/03 09:18:49;;;;;;;4.53;3.40;;;24.20;99.90;;;;;;4982286;28;20448;-74
2023/09/03 09:21:16;;;;;;;7.50;6.40;;;24.20;99.90;;;;;;4985766;28;20557;-74
2023/09/03 09:23:42;;;;;;;7.70;5.10;;;24.30;99.90;;;;;;4984076;28;20350;-75
2023/09/03 09:26:18;;;;;;;4.83;3.80;;;24.40;99.90;;;;;;4991369;28;20764;-73
2023/09/03 09:29:01;;;;;;;5.57;3.80;;;24.50;99.90;;;;;;4984905;28;20790;-74
2023/09/03 09:31:29;;;;;;;5.27;4.77;;;24.50;99.90;;;;;;4982605;28;20436;-73
2023/09/03 09:33:54;;;;;;;5.23;4.73;;;24.60;99.90;;;;;;4988432;28;20957;-74
2023/09/03 09:36:20;;;;;;;5.90;5.30;;;24.70;99.90;;;;;;4980601;28;20429;-74
2023/09/03 09:38:46;;;;;;;4.43;4.03;;;24.70;99.90;;;;;;4982656;28;20642;-74
2023/09/03 09:41:26;;;;;;;5.40;4.73;;;24.80;99.90;;;;;;4975218;28;20182;-74
2023/09/03 09:43:52;;;;;;;4.70;4.27;;;24.90;99.90;;;;;;4979345;28;20717;-74
2023/09/03 09:46:31;;;;;;;7.47;6.30;;;24.90;99.90;;;;;;4977035;28;20441;-74
2023/09/03 09:48:58;;;;;;;6.27;5.30;;;25.00;99.90;;;;;;4981699;28;20500;-74
2023/09/03 09:51:24;;;;;;;5.33;3.77;;;25.00;99.90;;;;;;4980149;28;20565;-74
2023/09/03 09:54:01;;;;;;;4.60;3.97;;;25.10;99.90;;;;;;4977372;28;20869;-74
2023/09/03 09:56:37;;;;;;;4.10;3.70;;;25.20;99.90;;;;;;4980858;28;20425;-74
2023/09/03 09:59:03;;;;;;;3.93;3.10;;;25.20;99.90;;;;;;4981634;28;20461;-74
2023/09/03 10:01:42;;;;;;;4.10;3.53;;;25.30;99.90;;;;;;4981498;28;20422;-73
2023/09/03 10:04:07;;;;;;;6.90;6.20;;;25.20;99.90;;;;;;4982533;28;20460;-74
2023/09/03 10:06:34;;;;;;;4.37;3.97;;;25.30;99.90;;;;;;4986488;28;20512;-73
2023/09/03 10:09:00;;;;;;;5.97;4.93;;;25.30;99.90;;;;;;4986291;28;20292;-74
2023/09/03 10:11:25;;;;;;;5.70;3.87;;;25.30;99.90;;;;;;4984361;28;21014;-73
2023/09/03 10:13:51;;;;;;;5.93;4.10;;;25.30;99.90;;;;;;4982950;28;20181;-74
2023/09/03 10:16:19;;;;;;;6.63;3.20;;;25.40;99.90;;;;;;4986387;28;20192;-74
2023/09/03 10:18:47;;;;;;;4.20;3.50;;;25.40;99.90;;;;;;4981816;28;20640;-73
2023/09/03 10:21:19;;;;;;;5.20;4.70;;;25.40;99.90;;;;;;4984662;28;20437;-74
2023/09/03 10:23:48;;;;;;;9.10;3.60;;;25.50;99.90;;;;;;4982083;28;20420;-74
2023/09/03 10:26:25;;;;;;;3.60;3.20;;;25.50;99.90;;;;;;4988567;28;20551;-74
2023/09/03 10:29:01;;;;;;;3.30;3.00;;;25.60;99.90;;;;;;4982448;28;20468;-74
2023/09/03 10:31:27;;;;;;;3.83;3.10;;;25.60;99.90;;;;;;4981226;28;20435;-74
2023/09/03 10:33:53;;;;;;;3.80;2.97;;;25.70;99.90;;;;;;4979778;28;20950;-74
2023/09/03 10:36:20;;;;;;;3.90;3.03;;;25.80;99.90;;;;;;4979052;28;20433;-74
2023/09/03 10:38:47;;;;;;;3.97;3.57;;;25.90;99.90;;;;;;4976029;28;20197;-74
2023/09/03 10:41:25;;;;;;;3.47;2.97;;;25.90;99.90;;;;;;4983481;28;20417;-74
2023/09/03 10:43:52;;;;;;;7.23;5.77;;;26.00;99.90;;;;;;4979137;28;20440;-74
2023/09/03 10:46:18;;;;;;;3.90;3.07;;;26.10;99.90;;;;;;4982845;28;20421;-74
2023/09/03 10:48:51;;;;;;;5.83;4.50;;;26.10;99.90;;;;;;4980991;28;20858;-74
2023/09/03 10:51:34;;;;;;;3.40;3.10;;;26.20;99.90;;;;;;4981696;28;20506;-73
2023/09/03 10:54:19;;;;;;;4.10;3.70;;;26.30;99.90;;;;;;4981387;28;20843;-73
2023/09/03 10:57:03;;;;;;;3.80;3.50;;;26.40;99.90;;;;;;4986020;28;20467;-73
2023/09/03 10:59:58;;;;;;;3.73;3.43;;;26.40;99.90;;;;;;4982364;28;20448;-74
2023/09/03 11:02:28;;;;;;;4.97;2.47;;;26.50;99.90;;;;;;4962127;28;20814;-74
2023/09/03 11:05:13;;;;;;;2.63;2.13;;;26.60;99.90;;;;;;4984169;28;20471;-73
2023/09/03 11:07:39;;;;;;;4.00;2.60;;;26.60;99.90;;;;;;4981242;28;20444;-73
2023/09/03 11:10:20;;;;;;;4.37;3.97;;;26.60;99.90;;;;;;4991229;28;20470;-73
2023/09/03 11:12:47;;;;;;;6.80;6.17;;;26.70;99.90;;;;;;4985385;28;20425;-73
2023/09/03 11:15:13;;;;;;;3.90;3.50;;;26.80;99.90;;;;;;4985633;28;21189;-73
2023/09/03 11:17:41;;;;;;;3.23;2.93;;;26.80;99.90;;;;;;4986108;28;20524;-73
2023/09/03 11:20:08;;;;;;;2.73;2.40;;;26.90;99.90;;;;;;4983826;28;20488;-73
2023/09/03 11:22:37;;;;;;;3.80;3.40;;;27.00;99.90;;;;;;4983468;28;20921;-74
2023/09/03 11:25:04;;;;;;;4.30;3.50;;;27.10;99.90;;;;;;4988574;28;20412;-73
2023/09/03 11:27:30;;;;;;;5.83;3.10;;;27.10;99.90;;;;;;4984750;28;20445;-73
2023/09/03 11:30:08;;;;;;;3.20;2.90;;;27.20;99.90;;;;;;4980019;28;20889;-73
2023/09/03 11:32:37;;;;;;;5.27;2.80;;;27.30;99.90;;;;;;4984280;28;20173;-73
2023/09/03 11:35:03;;;;;;;4.30;2.97;;;27.40;99.90;;;;;;4980462;28;20780;-73
2023/09/03 11:37:29;;;;;;;4.83;3.60;;;27.50;99.90;;;;;;4981313;28;20448;-73
2023/09/03 11:39:55;;;;;;;3.13;2.40;;;27.60;99.90;;;;;;4982729;28;20445;-73
2023/09/03 11:42:22;;;;;;;4.00;3.03;;;27.70;99.90;;;;;;4983600;28;20547;-73
2023/09/03 11:44:51;;;;;;;3.90;3.20;;;27.70;99.90;;;;;;4978952;28;20888;-73
2023/09/03 11:47:16;;;;;;;2.97;2.00;;;27.90;99.90;;;;;;4981152;28;20454;-74
2023/09/03 11:49:47;;;;;;;4.30;2.67;;;28.00;99.90;;;;;;4982524;28;21103;-74
2023/09/03 11:52:14;;;;;;;4.00;2.97;;;28.20;99.90;;;;;;4976555;28;20198;-74
2023/09/03 11:54:40;;;;;;;4.60;3.77;;;28.30;99.90;;;;;;4980841;28;20429;-74
2023/09/03 11:57:10;;;;;;;3.07;2.77;;;28.50;99.90;;;;;;4981062;28;20427;-74
2023/09/03 11:59:35;;;;;;;2.83;2.40;;;28.70;99.90;;;;;;4979657;28;20433;-72
2023/09/03 12:02:02;;;;;;;3.73;3.43;;;29.00;99.90;;;;;;4983365;28;20436;-74
2023/09/03 12:04:28;;;;;;;4.87;3.13;;;29.10;99.90;;;;;;4973587;28;20229;-74
2023/09/03 12:06:54;;;;;;;4.13;3.73;;;29.30;99.90;;;;;;4980095;28;20424;-74
2023/09/03 12:09:22;;;;;;;5.40;4.03;;;29.60;99.90;;;;;;4979264;28;21039;-74
2023/09/03 12:11:48;;;;;;;3.37;2.57;;;29.90;99.90;;;;;;4978415;28;20216;-74
2023/09/03 12:14:29;;;;;;;3.60;3.20;;;29.90;99.90;;;;;;4980568;28;20441;-74
2023/09/03 12:16:55;;;;;;;4.07;2.77;;;30.00;99.90;;;;;;4982953;28;20171;-74
2023/09/03 12:19:20;;;;;;;3.40;3.10;;;29.80;99.90;;;;;;4978619;28;20447;-74
2023/09/03 12:21:54;;;;;;;5.40;3.93;;;29.90;99.90;;;;;;4980564;28;20256;-74
2023/09/03 12:24:27;;;;;;;4.40;4.00;;;30.10;99.90;;;;;;4978676;28;20174;-74
2023/09/03 12:27:03;;;;;;;4.47;3.70;;;30.10;99.90;;;;;;4980207;28;20421;-74
2023/09/03 12:29:34;;;;;;;4.37;3.97;;;30.10;99.90;;;;;;4980741;28;20805;-75
2023/09/03 12:31:59;;;;;;;4.37;2.60;;;30.20;99.90;;;;;;4974948;28;20410;-75
2023/09/03 12:34:36;;;;;;;2.90;2.60;;;30.30;99.90;;;;;;4983847;28;20440;-75
2023/09/03 12:37:03;;;;;;;2.80;2.50;;;30.30;99.90;;;;;;4979972;28;20772;-75
2023/09/03 12:39:36;;;;;;;4.80;3.20;;;30.40;99.90;;;;;;4983064;28;20523;-75
2023/09/03 12:42:04;;;;;;;3.10;2.80;;;30.50;99.90;;;;;;4982283;28;20968;-73
2023/09/03 12:44:29;;;;;;;2.60;2.40;;;30.50;99.90;;;;;;4981393;28;20971;-74
2023/09/03 12:46:55;;;;;;;8.57;4.57;;;30.50;99.90;;;;;;4985856;28;20828;-74
2023/09/03 12:49:21;;;;;;;4.17;3.67;;;30.60;99.90;;;;;;4982246;28;20228;-74
2023/09/03 12:51:47;;;;;;;3.20;2.90;;;30.70;99.90;;;;;;4983127;28;20641;-74